createdAt,value
2023-08-14T00:01:33.870Z,95197.78
2023-08-14T00:04:01.847Z,95202.19
2023-08-14T00:06:29.887Z,95193.69
2023-08-14T00:08:59.207Z,95203.28
2023-08-14T00:11:27.147Z,95198.25
2023-08-14T00:13:56.927Z,95195.88
2023-08-14T00:16:26.340Z,95188.94
2023-08-14T00:18:54.554Z,95190.53
2023-08-14T00:21:22.689Z,95190.81
2023-08-14T00:23:50.607Z,95190.53
2023-08-14T00:26:19.922Z,95183.59
2023-08-14T00:28:47.938Z,95175.75
2023-08-14T00:31:18.130Z,95185.47
2023-08-14T00:33:46.923Z,95176.34
2023-08-14T00:36:15.251Z,95168.97
2023-08-14T00:38:43.230Z,95172.25
2023-08-14T00:41:12.173Z,95168.16
2023-08-14T00:43:41.544Z,95167.19
2023-08-14T00:46:10.812Z,95165.22
2023-08-14T00:48:38.927Z,95160.50
2023-08-14T00:51:06.179Z,95167.41
2023-08-14T00:53:34.431Z,95159.09
2023-08-14T00:56:04.357Z,95152.19
2023-08-14T00:58:32.530Z,95158.94
2023-08-14T01:01:02.293Z,95158.94
2023-08-14T01:03:30.867Z,95150.47
2023-08-14T01:05:59.618Z,95152.66
2023-08-14T01:08:27.909Z,95152.13
2023-08-14T01:11:01.736Z,95150.25
2023-08-14T01:13:39.022Z,95147.91
2023-08-14T01:16:11.845Z,95149.13
2023-08-14T01:18:42.792Z,95143.78
2023-08-14T01:21:27.153Z,95140.81
2023-08-14T01:24:03.726Z,95145.38
2023-08-14T01:26:33.789Z,95140.50
2023-08-14T01:29:04.359Z,95147.13
2023-08-14T01:31:32.724Z,95152.28
2023-08-14T01:34:00.771Z,95146.72
2023-08-14T01:36:35.787Z,95141.50
2023-08-14T01:39:09.036Z,95142.25
2023-08-14T01:41:45.538Z,95144.31
2023-08-14T01:44:16.602Z,95139.94
2023-08-14T01:46:48.626Z,95144.66
2023-08-14T01:49:18.766Z,95150.50
2023-08-14T01:51:48.628Z,95150.59
2023-08-14T01:54:16.566Z,95148.84
2023-08-14T01:56:46.077Z,95150.25
2023-08-14T01:59:14.126Z,95154.78
2023-08-14T02:01:42.203Z,95155.59
2023-08-14T02:04:10.850Z,95145.53
2023-08-14T02:06:38.825Z,95150.06
2023-08-14T02:09:06.838Z,95149.28
2023-08-14T02:11:36.790Z,95159.47
2023-08-14T02:14:06.315Z,95159.56
2023-08-14T02:16:34.398Z,95158.78
2023-08-14T02:19:02.429Z,95148.44
2023-08-14T02:21:30.408Z,95147.94
2023-08-14T02:23:58.326Z,95144.81
2023-08-14T02:26:26.223Z,95145.41
2023-08-14T02:28:55.130Z,95150.75
2023-08-14T02:31:24.482Z,95154.97
2023-08-14T02:33:52.684Z,95145.41
2023-08-14T02:36:20.592Z,95148.06
2023-08-14T02:38:48.534Z,95149.78
2023-08-14T02:41:16.495Z,95148.50
2023-08-14T02:43:44.523Z,95141.28
2023-08-14T02:46:12.602Z,95148.19
2023-08-14T02:48:42.829Z,95152.59
2023-08-14T02:51:10.854Z,95153.53
2023-08-14T02:53:38.918Z,95146.56
2023-08-14T02:56:06.942Z,95148.59
2023-08-14T02:58:36.890Z,95141.59
2023-08-14T03:01:06.109Z,95144.72
2023-08-14T03:03:34.119Z,95147.28
2023-08-14T03:06:04.092Z,95139.78
2023-08-14T03:08:32.136Z,95140.25
2023-08-14T03:11:00.122Z,95141.34
2023-08-14T03:13:28.173Z,95132.25
2023-08-14T03:15:56.151Z,95132.25
2023-08-14T03:18:24.107Z,95125.38
2023-08-14T03:20:52.103Z,95125.38
2023-08-14T03:23:21.375Z,95114.72
2023-08-14T03:25:49.479Z,95114.22
2023-08-14T03:28:17.440Z,95110.78
2023-08-14T03:30:46.920Z,95113.13
2023-08-14T03:33:16.292Z,95110.94
2023-08-14T03:35:44.248Z,95113.03
2023-08-14T03:38:13.726Z,95106.63
2023-08-14T03:40:43.089Z,95111.38
2023-08-14T03:43:11.055Z,95120.28
2023-08-14T03:45:39.019Z,95121.09
2023-08-14T03:48:07.514Z,95116.59
2023-08-14T03:50:35.568Z,95120.34
2023-08-14T03:53:03.541Z,95121.53
2023-08-14T03:55:31.480Z,95129.81
2023-08-14T03:58:00.903Z,95128.44
2023-08-14T04:00:28.859Z,95122.50
2023-08-14T04:02:56.895Z,95125.69
2023-08-14T04:05:24.936Z,95135.72
2023-08-14T04:07:52.919Z,95141.75
2023-08-14T04:10:20.908Z,95143.63
2023-08-14T04:12:48.866Z,95141.03
2023-08-14T04:15:19.330Z,95143.69
2023-08-14T04:17:47.639Z,95148.16
2023-08-14T04:20:15.711Z,95144.28
2023-08-14T04:22:43.781Z,95146.66
2023-08-14T04:25:11.730Z,95147.44
2023-08-14T04:27:39.945Z,95150.91
2023-08-14T04:30:09.908Z,95150.91
2023-08-14T04:32:39.267Z,95156.22
2023-08-14T04:35:09.242Z,95156.22
2023-08-14T04:37:37.715Z,95159.69
2023-08-14T04:40:07.034Z,95157.22
2023-08-14T04:42:35.497Z,95160.19
2023-08-14T04:45:05.500Z,95157.81
2023-08-14T04:47:33.509Z,95154.06
2023-08-14T04:50:04.261Z,95148.75
2023-08-14T04:52:32.249Z,95145.56
2023-08-14T04:55:00.285Z,95142.91
2023-08-14T04:57:31.502Z,95140.06
2023-08-14T04:59:59.556Z,95138.06
2023-08-14T05:02:30.671Z,95139.56
2023-08-14T05:04:58.687Z,95142.84
2023-08-14T05:07:28.129Z,95155.25
2023-08-14T05:09:56.165Z,95145.56
2023-08-14T05:12:24.103Z,95159.94
2023-08-14T05:14:54.701Z,95159.28
2023-08-14T05:17:23.413Z,95151.31
2023-08-14T05:19:52.269Z,95157.00
2023-08-14T05:22:20.867Z,95152.06
2023-08-14T05:24:50.521Z,95159.38
2023-08-14T05:27:18.462Z,95157.72
2023-08-14T05:29:48.782Z,95156.03
2023-08-14T05:32:17.214Z,95161.34
2023-08-14T05:34:45.348Z,95166.66
2023-08-14T05:37:13.350Z,95161.84
2023-08-14T05:39:41.293Z,95169.81
2023-08-14T05:42:10.597Z,95165.09
2023-08-14T05:44:38.538Z,95166.47
2023-08-14T05:47:06.703Z,95178.28
2023-08-14T05:49:34.669Z,95177.69
2023-08-14T05:52:02.610Z,95172.81
2023-08-14T05:54:30.576Z,95173.78
2023-08-14T05:56:58.494Z,95168.94
2023-08-14T05:59:27.801Z,95178.88
2023-08-14T06:01:58.543Z,95180.28
2023-08-14T06:04:28.679Z,95183.84
2023-08-14T06:06:56.666Z,95189.97
2023-08-14T06:09:24.784Z,95190.81
2023-08-14T06:11:52.709Z,95193.72
2023-08-14T06:14:20.723Z,95186.41
2023-08-14T06:16:50.036Z,95195.41
2023-08-14T06:19:18.002Z,95200.97
2023-08-14T06:21:45.900Z,95192.19
2023-08-14T06:24:13.826Z,95208.44
2023-08-14T06:26:41.750Z,95198.19
2023-08-14T06:29:09.873Z,95199.94
2023-08-14T06:31:37.779Z,95200.13
2023-08-14T06:34:08.158Z,95197.31
2023-08-14T06:36:36.823Z,95210.59
2023-08-14T06:39:06.288Z,95214.72
2023-08-14T06:41:34.418Z,95197.50
2023-08-14T06:44:08.002Z,95203.22
2023-08-14T06:46:36.000Z,95209.53
2023-08-14T06:49:03.938Z,95217.03
2023-08-14T06:51:34.120Z,95224.91
2023-08-14T06:54:02.171Z,95225.25
2023-08-14T06:56:30.101Z,95226.44
2023-08-14T06:58:58.233Z,95231.34
2023-08-14T07:01:26.772Z,95236.06
2023-08-14T07:03:54.862Z,95237.47
2023-08-14T07:06:23.152Z,95240.56
2023-08-14T07:08:52.437Z,95242.25
2023-08-14T07:11:20.495Z,95247.19
2023-08-14T07:13:49.016Z,95255.56
2023-08-14T07:16:17.170Z,95258.28
2023-08-14T07:18:45.147Z,95267.91
2023-08-14T07:21:13.157Z,95268.25
2023-08-14T07:23:41.075Z,95272.63
2023-08-14T07:26:13.550Z,95273.66
2023-08-14T07:28:42.006Z,95280.91
2023-08-14T07:31:10.951Z,95285.50
2023-08-14T07:33:39.067Z,95299.34
2023-08-14T07:36:07.067Z,95297.28
2023-08-14T07:38:35.052Z,95307.91
2023-08-14T07:41:03.039Z,95317.19
2023-08-14T07:43:32.350Z,95328.84
2023-08-14T07:46:00.356Z,95342.69
2023-08-14T07:48:28.351Z,95359.91
2023-08-14T07:50:56.665Z,95368.41
2023-08-14T07:53:24.770Z,95380.06
2023-08-14T07:55:52.727Z,95386.00
2023-08-14T07:58:20.677Z,95396.09
2023-08-14T08:00:50.030Z,95408.34
2023-08-14T08:03:17.941Z,95418.84
2023-08-14T08:05:45.905Z,95416.00
2023-08-14T08:08:13.874Z,95421.81
2023-08-14T08:10:41.967Z,95430.06
2023-08-14T08:13:10.510Z,95425.69
2023-08-14T08:15:38.463Z,95424.00
2023-08-14T08:18:07.832Z,95429.78
2023-08-14T08:20:35.934Z,95415.63
2023-08-14T08:23:05.164Z,95412.72
2023-08-14T08:25:33.212Z,95411.81
2023-08-14T08:28:01.192Z,95410.47
2023-08-14T08:30:29.296Z,95407.97
2023-08-14T08:33:03.138Z,95403.63
2023-08-14T08:35:32.885Z,95402.72
2023-08-14T08:38:00.860Z,95394.53
2023-08-14T08:40:29.611Z,95399.00
2023-08-14T08:42:58.367Z,95397.91
2023-08-14T08:45:33.834Z,95386.56
2023-08-14T08:48:02.993Z,95387.38
2023-08-14T08:50:32.952Z,95392.25
2023-08-14T08:53:01.417Z,95393.53
2023-08-14T08:55:29.956Z,95381.25
2023-08-14T08:57:59.593Z,95369.63
2023-08-14T09:00:28.031Z,95382.03
2023-08-14T09:02:56.263Z,95365.81
2023-08-14T09:05:25.406Z,95365.50
2023-08-14T09:07:54.768Z,95375.59
2023-08-14T09:10:22.730Z,95366.94
2023-08-14T09:12:51.143Z,95371.22
2023-08-14T09:15:19.134Z,95364.28
2023-08-14T09:17:47.165Z,95363.00
2023-08-14T09:20:24.424Z,95355.91
2023-08-14T09:23:02.601Z,95351.78
2023-08-14T09:25:30.734Z,95355.56
2023-08-14T09:27:59.431Z,95346.25
2023-08-14T09:30:28.061Z,95346.41
2023-08-14T09:32:56.845Z,95346.53
2023-08-14T09:35:25.033Z,95340.66
2023-08-14T09:37:53.018Z,95331.16
2023-08-14T09:40:22.542Z,95336.47
2023-08-14T09:42:51.630Z,95331.72
2023-08-14T09:45:24.777Z,95333.78
2023-08-14T09:47:53.821Z,95328.81
2023-08-14T09:50:27.066Z,95327.28
2023-08-14T09:52:58.244Z,95319.06
2023-08-14T09:55:28.742Z,95301.22
2023-08-14T09:57:57.542Z,95300.78
2023-08-14T10:00:29.253Z,95297.91
2023-08-14T10:03:02.126Z,95297.25
2023-08-14T10:05:32.482Z,95293.09
2023-08-14T10:08:00.889Z,95290.78
2023-08-14T10:10:32.879Z,95268.69
2023-08-14T10:13:05.950Z,95267.41
2023-08-14T10:15:36.562Z,95257.19
2023-08-14T10:18:11.224Z,95256.94
2023-08-14T10:20:40.885Z,95249.72
2023-08-14T10:23:10.540Z,95240.44
2023-08-14T10:25:40.776Z,95225.91
2023-08-14T10:28:09.820Z,95221.44
2023-08-14T10:30:38.904Z,95205.81
2023-08-14T10:33:07.848Z,95201.59
2023-08-14T10:35:46.402Z,95202.31
2023-08-14T10:38:18.157Z,95201.66
2023-08-14T10:40:57.827Z,95194.50
2023-08-14T10:43:28.392Z,95181.47
2023-08-14T10:45:56.357Z,95171.41
2023-08-14T10:48:24.999Z,95167.59
2023-08-14T10:51:00.325Z,95156.88
2023-08-14T10:53:28.393Z,95159.09
2023-08-14T10:55:57.733Z,95153.91
2023-08-14T10:58:48.295Z,95155.22
2023-08-14T11:01:16.953Z,95148.09
2023-08-14T11:04:03.765Z,95142.53
2023-08-14T11:07:02.469Z,95142.16
2023-08-14T11:09:34.205Z,95145.72
2023-08-14T11:12:08.457Z,95135.44
2023-08-14T11:14:37.964Z,95137.44
2023-08-14T11:17:06.281Z,95130.94
2023-08-14T11:19:36.168Z,95133.16
2023-08-14T11:22:04.391Z,95131.75
2023-08-14T11:24:34.357Z,95133.31
2023-08-14T11:27:03.354Z,95130.16
2023-08-14T11:29:33.293Z,95121.78
2023-08-14T11:32:02.306Z,95134.09
2023-08-14T11:34:33.360Z,95130.75
2023-08-14T11:39:34.470Z,95132.06
2023-08-14T11:42:03.947Z,95126.16
2023-08-14T11:44:34.982Z,95130.28
2023-08-14T11:47:04.282Z,95121.78
2023-08-14T11:49:33.583Z,95125.56
2023-08-14T11:52:04.381Z,95134.09
2023-08-14T11:54:33.458Z,95126.72
2023-08-14T11:57:03.766Z,95131.44
2023-08-14T11:59:33.164Z,95128.78
2023-08-14T12:02:02.045Z,95136.63
2023-08-14T12:04:30.109Z,95134.75
2023-08-14T12:06:58.050Z,95141.19
2023-08-14T12:09:28.701Z,95140.16
2023-08-14T12:11:56.866Z,95129.16
2023-08-14T12:14:24.868Z,95127.00
2023-08-14T12:16:54.238Z,95132.72
2023-08-14T12:19:23.035Z,95134.31
2023-08-14T12:21:58.147Z,95126.97
2023-08-14T12:24:26.210Z,95134.38
2023-08-14T12:26:54.724Z,95135.38
2023-08-14T12:29:22.995Z,95128.28
2023-08-14T12:31:51.074Z,95126.56
2023-08-14T12:34:22.734Z,95130.44
2023-08-14T12:36:50.814Z,95138.97
2023-08-14T12:39:18.750Z,95119.00
2023-08-14T12:41:46.800Z,95112.44
2023-08-14T12:44:14.935Z,95110.34
2023-08-14T12:46:42.941Z,95107.41
2023-08-14T12:49:10.903Z,95104.97
2023-08-14T12:51:42.483Z,95103.72
2023-08-14T12:54:11.936Z,95093.59
2023-08-14T12:56:42.094Z,95089.94
2023-08-14T12:59:11.579Z,95085.25
2023-08-14T13:01:40.002Z,95075.78
2023-08-14T13:04:08.060Z,95069.50
2023-08-14T13:06:36.403Z,95064.09
2023-08-14T13:09:06.627Z,95057.81
2023-08-14T13:11:34.918Z,95056.16
2023-08-14T13:14:02.888Z,95052.44
2023-08-14T13:16:30.911Z,95049.88
2023-08-14T13:18:59.016Z,95047.63
2023-08-14T13:21:27.000Z,95051.13
2023-08-14T13:23:54.955Z,95052.03
2023-08-14T13:26:26.926Z,95045.75
2023-08-14T13:28:55.821Z,95047.72
2023-08-14T13:31:23.937Z,95048.91
2023-08-14T13:33:52.038Z,95041.59
2023-08-14T13:36:19.980Z,95024.03
2023-08-14T13:38:47.959Z,95018.06
2023-08-14T13:41:15.906Z,95022.94
2023-08-14T13:43:45.218Z,95010.69
2023-08-14T13:46:13.296Z,95012.31
2023-08-14T13:48:41.324Z,95014.53
2023-08-14T13:51:09.282Z,95018.81
2023-08-14T13:53:37.251Z,95021.28
2023-08-14T13:56:05.379Z,95020.00
2023-08-14T13:58:33.368Z,95020.34
2023-08-14T14:01:03.372Z,95005.88
2023-08-14T14:03:31.622Z,95017.88
2023-08-14T14:05:59.729Z,95009.78
2023-08-14T14:08:27.837Z,95010.03
2023-08-14T14:10:55.957Z,95008.53
2023-08-14T14:13:23.985Z,95009.25
2023-08-14T14:15:52.065Z,95003.25
2023-08-14T14:18:21.393Z,95010.94
2023-08-14T14:20:50.334Z,95021.13
2023-08-14T14:23:18.383Z,95013.25
2023-08-14T14:25:46.309Z,95013.59
2023-08-14T14:28:15.632Z,95023.00
2023-08-14T14:30:43.603Z,95024.66
2023-08-14T14:33:11.542Z,95030.88
2023-08-14T14:35:40.844Z,95026.16
2023-08-14T14:38:08.772Z,95022.59
2023-08-14T14:40:36.904Z,95038.28
2023-08-14T14:43:05.139Z,95029.03
2023-08-14T14:45:35.093Z,95032.44
2023-08-14T14:48:04.234Z,95035.38
2023-08-14T14:50:32.273Z,95037.03
2023-08-14T14:53:01.606Z,95051.78
2023-08-14T14:55:29.547Z,95041.06
2023-08-14T14:57:57.559Z,95045.56
2023-08-14T15:00:27.152Z,95048.94
2023-08-14T15:02:55.429Z,95049.94
2023-08-14T15:07:54.329Z,95056.78
2023-08-14T15:10:23.653Z,95064.72
2023-08-14T15:12:53.816Z,95061.84
2023-08-14T15:15:22.981Z,95063.59
2023-08-14T15:17:51.034Z,95074.44
2023-08-14T15:20:19.474Z,95075.50
2023-08-14T15:22:47.499Z,95069.25
2023-08-14T15:25:15.458Z,95073.94
2023-08-14T15:27:44.815Z,95079.75
2023-08-14T15:30:13.534Z,95084.00
2023-08-14T15:32:41.537Z,95085.47
2023-08-14T15:35:09.758Z,95088.31
2023-08-14T15:37:37.928Z,95089.00
2023-08-14T15:40:07.133Z,95082.84
2023-08-14T15:42:35.200Z,95096.53
2023-08-14T15:45:08.314Z,95093.25
2023-08-14T15:47:37.130Z,95096.53
2023-08-14T15:50:05.928Z,95099.66
2023-08-14T15:52:33.930Z,95109.31
2023-08-14T15:55:02.348Z,95100.09
2023-08-14T15:57:30.384Z,95105.50
2023-08-14T15:59:58.343Z,95097.41
2023-08-14T16:02:27.773Z,95098.63
2023-08-14T16:04:55.737Z,95097.84
2023-08-14T16:07:23.697Z,95100.28
2023-08-14T16:09:52.761Z,95100.72
2023-08-14T16:12:20.994Z,95094.91
2023-08-14T16:14:48.997Z,95100.97
2023-08-14T16:17:17.208Z,95099.31
2023-08-14T16:19:46.761Z,95099.91
2023-08-14T16:22:14.805Z,95092.06
2023-08-14T16:24:42.796Z,95105.78
2023-08-14T16:27:11.319Z,95106.25
2023-08-14T16:29:39.298Z,95098.22
2023-08-14T16:32:07.420Z,95095.78
2023-08-14T16:34:35.335Z,95098.00
2023-08-14T16:37:05.805Z,95089.84
2023-08-14T16:39:33.798Z,95095.56
2023-08-14T16:42:01.699Z,95098.25
2023-08-14T16:44:29.679Z,95096.69
2023-08-14T16:46:57.620Z,95094.00
2023-08-14T16:49:25.610Z,95102.03
2023-08-14T16:51:53.544Z,95099.31
2023-08-14T16:54:22.882Z,95108.50
2023-08-14T16:56:50.834Z,95107.63
2023-08-14T16:59:19.635Z,95098.34
2023-08-14T17:01:47.726Z,95096.88
2023-08-14T17:04:15.773Z,95102.47
2023-08-14T17:06:43.766Z,95101.03
2023-08-14T17:09:14.639Z,95096.25
2023-08-14T17:11:44.454Z,95095.38
2023-08-14T17:14:12.487Z,95087.31
2023-08-14T17:16:40.661Z,95080.09
2023-08-14T17:19:08.623Z,95082.56
2023-08-14T17:21:36.564Z,95085.59
2023-08-14T17:24:04.864Z,95079.22
2023-08-14T17:26:32.854Z,95073.66
2023-08-14T17:29:02.170Z,95075.88
2023-08-14T17:31:30.542Z,95080.19
2023-08-14T17:33:58.561Z,95073.69
2023-08-14T17:36:26.519Z,95075.50
2023-08-14T17:38:54.640Z,95077.28
2023-08-14T17:41:22.585Z,95078.63
2023-08-14T17:43:50.516Z,95071.69
2023-08-14T17:46:20.692Z,95073.16
2023-08-14T17:48:48.809Z,95083.13
2023-08-14T17:51:16.886Z,95083.13
2023-08-14T17:53:44.870Z,95086.91
2023-08-14T17:56:13.199Z,95085.13
2023-08-14T17:58:41.232Z,95088.69
2023-08-14T18:01:09.173Z,95087.81
2023-08-14T18:03:38.662Z,95087.25
2023-08-14T18:06:06.772Z,95088.25
2023-08-14T18:08:34.758Z,95097.34
2023-08-14T18:11:03.419Z,95103.28
2023-08-14T18:13:31.459Z,95094.53
2023-08-14T18:16:01.278Z,95105.06
2023-08-14T18:18:29.328Z,95103.25
2023-08-14T18:20:58.717Z,95109.97
2023-08-14T18:23:26.654Z,95107.47
2023-08-14T18:25:55.632Z,95105.00
2023-08-14T18:28:24.140Z,95109.44
2023-08-14T18:30:52.386Z,95106.19
2023-08-14T18:33:20.711Z,95108.09
2023-08-14T18:35:48.644Z,95107.81
2023-08-14T18:38:17.952Z,95104.81
2023-08-14T18:40:46.988Z,95108.28
2023-08-14T18:43:15.037Z,95104.97
2023-08-14T18:45:43.043Z,95108.63
2023-08-14T18:48:11.338Z,95108.72
2023-08-14T18:50:39.364Z,95110.03
2023-08-14T18:53:07.962Z,95126.31
2023-08-14T18:55:40.425Z,95124.31
2023-08-14T18:58:08.741Z,95128.94
2023-08-14T19:00:37.068Z,95129.59
2023-08-14T19:03:05.578Z,95128.81
2023-08-14T19:05:33.573Z,95134.03
2023-08-14T19:08:01.531Z,95133.41
2023-08-14T19:10:29.531Z,95141.22
2023-08-14T19:12:58.898Z,95141.69
2023-08-14T19:15:27.801Z,95151.31
2023-08-14T19:17:55.777Z,95158.91
2023-08-14T19:20:23.768Z,95158.00
2023-08-14T19:22:52.202Z,95163.53
2023-08-14T19:25:20.174Z,95174.25
2023-08-14T19:27:48.188Z,95178.50
2023-08-14T19:30:17.570Z,95178.50
2023-08-14T19:32:45.613Z,95190.22
2023-08-14T19:35:13.571Z,95184.28
2023-08-14T19:37:41.585Z,95190.00
2023-08-14T19:40:12.034Z,95187.06
2023-08-14T19:42:42.981Z,95191.06
2023-08-14T19:45:12.187Z,95191.72
2023-08-14T19:47:42.001Z,95193.47
2023-08-14T19:50:10.340Z,95196.78
2023-08-14T19:52:38.274Z,95204.34
2023-08-14T19:55:07.263Z,95214.13
2023-08-14T19:57:35.283Z,95210.84
2023-08-14T20:00:06.099Z,95217.31
2023-08-14T20:02:34.320Z,95211.50
2023-08-14T20:05:05.836Z,95216.84
2023-08-14T20:07:33.949Z,95221.44
2023-08-14T20:10:01.907Z,95231.50
2023-08-14T20:12:29.894Z,95229.47
2023-08-14T20:14:58.922Z,95230.09
2023-08-14T20:17:26.902Z,95231.19
2023-08-14T20:19:55.064Z,95229.47
2023-08-14T20:22:25.621Z,95241.63
2023-08-14T20:24:53.765Z,95243.84
2023-08-14T20:27:22.114Z,95244.50
2023-08-14T20:29:50.276Z,95250.50
2023-08-14T20:32:20.317Z,95256.19
2023-08-14T20:34:48.356Z,95256.50
2023-08-14T20:37:16.459Z,95264.03
2023-08-14T20:39:47.200Z,95259.31
2023-08-14T20:42:15.264Z,95266.91
2023-08-14T20:44:43.235Z,95264.38
2023-08-14T20:47:11.492Z,95264.53
2023-08-14T20:49:39.396Z,95274.16
2023-08-14T20:52:07.500Z,95265.63
2023-08-14T20:54:35.571Z,95272.56
2023-08-14T20:57:05.081Z,95271.00
2023-08-14T20:59:33.032Z,95265.00
2023-08-14T21:02:01.018Z,95272.91
2023-08-14T21:04:28.978Z,95264.41
2023-08-14T21:06:56.957Z,95264.44
2023-08-14T21:09:24.907Z,95264.72
2023-08-14T21:11:53.594Z,95262.53
2023-08-14T21:14:23.025Z,95261.56
2023-08-14T21:16:51.024Z,95253.72
2023-08-14T21:19:19.000Z,95258.13
2023-08-14T21:21:46.993Z,95252.75
2023-08-14T21:24:14.996Z,95244.25
2023-08-14T21:26:42.991Z,95246.47
2023-08-14T21:29:10.910Z,95239.53
2023-08-14T21:31:40.242Z,95244.91
2023-08-14T21:34:10.738Z,95243.34
2023-08-14T21:36:38.732Z,95247.13
2023-08-14T21:39:06.692Z,95255.28
2023-08-14T21:41:34.688Z,95260.63
2023-08-14T21:44:02.694Z,95264.41
2023-08-14T21:46:34.292Z,95264.41
2023-08-14T21:49:05.059Z,95268.19
2023-08-14T21:51:33.036Z,95268.19
2023-08-14T21:54:00.992Z,95269.13
2023-08-14T21:56:29.236Z,95266.63
2023-08-14T21:58:57.217Z,95257.50
2023-08-14T22:01:25.329Z,95256.84
2023-08-14T22:03:53.307Z,95262.22
2023-08-14T22:06:22.614Z,95258.78
2023-08-14T22:08:50.580Z,95267.75
2023-08-14T22:11:18.590Z,95268.06
2023-08-14T22:13:46.579Z,95266.63
2023-08-14T22:16:14.686Z,95263.50
2023-08-14T22:18:42.593Z,95261.44
2023-08-14T22:21:10.600Z,95268.53
2023-08-14T22:23:40.005Z,95263.97
2023-08-14T22:26:08.621Z,95266.97
2023-08-14T22:28:36.682Z,95274.53
2023-08-14T22:31:04.637Z,95268.22
2023-08-14T22:33:32.665Z,95268.84
2023-08-14T22:36:00.838Z,95271.66
2023-08-14T22:38:29.582Z,95266.47
2023-08-14T22:40:59.054Z,95263.81
2023-08-14T22:43:26.969Z,95270.72
2023-08-14T22:45:54.917Z,95272.28
2023-08-14T22:48:23.040Z,95279.22
2023-08-14T22:50:51.045Z,95269.63
2023-08-14T22:53:19.801Z,95279.84
2023-08-14T22:55:49.808Z,95275.13
2023-08-14T22:58:19.272Z,95282.66
2023-08-14T23:00:47.485Z,95286.44
2023-08-14T23:03:15.460Z,95280.28
2023-08-14T23:05:43.432Z,95282.66
2023-08-14T23:08:11.350Z,95275.91
2023-08-14T23:10:39.339Z,95281.41
2023-08-14T23:13:07.319Z,95279.22
2023-08-14T23:15:36.835Z,95273.25
2023-08-14T23:18:05.371Z,95273.41
2023-08-14T23:20:33.471Z,95275.13
2023-08-14T23:23:01.421Z,95269.41
2023-08-14T23:25:29.369Z,95270.81
2023-08-14T23:27:57.312Z,95268.47
2023-08-14T23:30:25.385Z,95264.84
2023-08-14T23:32:54.680Z,95260.91
2023-08-14T23:35:22.606Z,95257.47
2023-08-14T23:37:52.269Z,95252.09
2023-08-14T23:40:20.210Z,95255.88
2023-08-14T23:42:48.140Z,95251.31
2023-08-14T23:45:16.178Z,95248.50
2023-08-14T23:47:44.159Z,95242.78
2023-08-14T23:50:13.514Z,95243.59
2023-08-14T23:52:41.424Z,95248.75
2023-08-14T23:55:10.422Z,95253.31
2023-08-14T23:57:38.413Z,95241.69
